createdAt,value
2022-09-11T00:00:41.934Z,99689.94
2022-09-11T00:05:44.407Z,99689.88
2022-09-11T00:10:48.270Z,99684.06
2022-09-11T00:15:51.470Z,99688.28
2022-09-11T00:20:54.573Z,99674.16
2022-09-11T00:25:56.209Z,99679.19
2022-09-11T00:31:00.783Z,99685.97
2022-09-11T00:36:07.814Z,99688.16
2022-09-11T00:41:19.785Z,99687.91
2022-09-11T00:46:31.400Z,99688.81
2022-09-11T00:51:37.807Z,99696.44
2022-09-11T00:56:41.876Z,99698.25
2022-09-11T01:01:43.576Z,99693.91
2022-09-11T01:06:46.694Z,99692.28
2022-09-11T01:12:19.950Z,99685.16
2022-09-11T01:17:33.318Z,99671.59
2022-09-11T01:22:44.056Z,99671.13
2022-09-11T01:27:52.147Z,99677.41
2022-09-11T01:32:59.238Z,99680.28
2022-09-11T01:38:05.906Z,99672.34
2022-09-11T01:43:13.823Z,99673.19
2022-09-11T01:48:20.608Z,99678.31
2022-09-11T01:53:25.767Z,99678.94
2022-09-11T01:58:29.992Z,99684.47
2022-09-11T02:03:41.493Z,99685.91
2022-09-11T02:09:03.488Z,99690.50
2022-09-11T02:14:36.097Z,99678.72
2022-09-11T02:19:39.762Z,99673.72
2022-09-11T02:24:42.399Z,99676.34
2022-09-11T02:29:44.023Z,99673.66
2022-09-11T02:34:47.866Z,99688.16
2022-09-11T02:39:52.720Z,99685.94
2022-09-11T02:45:04.022Z,99686.72
2022-09-11T02:50:26.065Z,99685.25
2022-09-11T02:56:00.715Z,99682.22
2022-09-11T03:01:05.244Z,99682.84
2022-09-11T03:06:13.831Z,99690.38
2022-09-11T03:11:17.668Z,99692.56
2022-09-11T03:16:21.212Z,99698.09
2022-09-11T03:21:24.920Z,99691.00
2022-09-11T03:26:27.921Z,99700.41
2022-09-11T03:31:29.637Z,99701.31
2022-09-11T03:36:32.472Z,99702.34
2022-09-11T03:41:34.202Z,99703.06
2022-09-11T03:46:36.148Z,99705.97
2022-09-11T03:51:37.957Z,99708.00
2022-09-11T03:56:39.795Z,99708.38
2022-09-11T04:01:41.552Z,99711.47
2022-09-11T04:06:44.018Z,99709.19
2022-09-11T04:11:45.713Z,99725.22
2022-09-11T04:16:54.427Z,99727.41
2022-09-11T04:21:56.359Z,99722.31
2022-09-11T04:27:00.952Z,99742.63
2022-09-11T04:32:04.369Z,99728.22
2022-09-11T04:37:10.236Z,99748.00
2022-09-11T04:42:12.705Z,99741.72
2022-09-11T04:47:16.136Z,99736.63
2022-09-11T04:52:20.355Z,99732.56
2022-09-11T04:57:21.963Z,99734.13
2022-09-11T05:02:24.318Z,99742.31
2022-09-11T05:07:29.390Z,99749.75
2022-09-11T05:12:31.945Z,99751.69
2022-09-11T05:17:34.377Z,99755.13
2022-09-11T05:22:38.127Z,99763.69
2022-09-11T05:27:40.263Z,99765.06
2022-09-11T05:32:42.121Z,99763.47
2022-09-11T05:37:44.084Z,99765.97
2022-09-11T05:42:45.917Z,99767.00
2022-09-11T05:47:47.701Z,99781.56
2022-09-11T05:52:49.521Z,99796.25
2022-09-11T05:57:55.001Z,99803.25
2022-09-11T06:02:59.029Z,99810.41
2022-09-11T06:08:05.091Z,99806.16
2022-09-11T06:13:07.946Z,99823.38
2022-09-11T06:18:10.808Z,99829.22
2022-09-11T06:23:12.935Z,99828.28
2022-09-11T06:28:14.789Z,99823.53
2022-09-11T06:33:17.240Z,99834.97
2022-09-11T06:38:18.943Z,99837.72
2022-09-11T06:43:21.465Z,99847.81
2022-09-11T06:48:23.299Z,99844.66
2022-09-11T06:53:25.362Z,99849.94
2022-09-11T06:58:32.593Z,99849.59
2022-09-11T07:03:34.557Z,99851.69
2022-09-11T07:08:40.245Z,99858.84
2022-09-11T07:13:42.065Z,99859.78
2022-09-11T07:18:45.822Z,99862.94
2022-09-11T07:23:57.025Z,99871.75
2022-09-11T07:28:59.501Z,99864.09
2022-09-11T07:34:02.864Z,99864.19
2022-09-11T07:39:05.853Z,99866.25
2022-09-11T07:44:23.425Z,99865.34
2022-09-11T07:49:26.788Z,99867.03
2022-09-11T07:54:31.207Z,99873.06
2022-09-11T07:59:33.402Z,99870.03
2022-09-11T08:04:36.426Z,99871.25
2022-09-11T08:09:38.276Z,99874.75
2022-09-11T08:14:40.125Z,99878.09
2022-09-11T08:19:52.009Z,99884.84
2022-09-11T08:24:53.884Z,99896.41
2022-09-11T08:29:55.809Z,99907.13
2022-09-11T08:34:57.697Z,99912.19
2022-09-11T08:40:00.864Z,99915.53
2022-09-11T08:45:07.249Z,99919.66
2022-09-11T08:50:24.083Z,99925.63
2022-09-11T08:55:39.498Z,99937.75
2022-09-11T09:01:19.300Z,99938.59
2022-09-11T09:06:39.947Z,99944.84
2022-09-11T09:11:55.703Z,99943.66
2022-09-11T09:17:04.763Z,99939.44
2022-09-11T09:22:26.021Z,99949.00
2022-09-11T09:27:37.035Z,99950.13
2022-09-11T09:32:48.757Z,99956.03
2022-09-11T09:37:50.571Z,99957.06
2022-09-11T09:42:58.618Z,99964.28
2022-09-11T09:48:01.372Z,99968.78
2022-09-11T09:53:11.656Z,99973.31
2022-09-11T09:58:14.745Z,99977.59
2022-09-11T10:03:24.842Z,99980.06
2022-09-11T10:08:37.970Z,99989.59
2022-09-11T10:13:52.803Z,99994.09
2022-09-11T10:18:56.006Z,100002.13
2022-09-11T10:24:03.341Z,100005.16
2022-09-11T10:29:13.563Z,100008.44
2022-09-11T10:34:19.189Z,100018.16
2022-09-11T10:39:23.231Z,100021.81
2022-09-11T10:44:27.594Z,100028.16
2022-09-11T10:49:35.367Z,100032.84
2022-09-11T10:55:15.259Z,100034.84
2022-09-11T11:00:27.866Z,100032.44
2022-09-11T11:05:46.679Z,100042.47
2022-09-11T11:11:12.743Z,100047.06
2022-09-11T11:16:27.355Z,100050.41
2022-09-11T11:21:30.022Z,100053.75
2022-09-11T11:26:50.206Z,100061.91
2022-09-11T11:32:19.837Z,100066.41
2022-09-11T11:37:28.232Z,100072.34
2022-09-11T11:42:35.639Z,100078.19
2022-09-11T11:47:42.565Z,100083.13
2022-09-11T11:53:01.798Z,100095.19
2022-09-11T11:58:04.604Z,100091.22
2022-09-11T12:03:44.486Z,100108.97
2022-09-11T12:08:47.171Z,100108.34
2022-09-11T12:13:48.807Z,100103.34
2022-09-11T12:19:14.512Z,100106.16
2022-09-11T12:24:19.826Z,100107.72
2022-09-11T12:29:42.459Z,100106.03
2022-09-11T12:34:44.411Z,100111.00
2022-09-11T12:39:51.555Z,100110.94
2022-09-11T12:44:54.274Z,100106.66
2022-09-11T12:50:21.276Z,100097.44
2022-09-11T12:55:35.364Z,100094.00
2022-09-11T13:00:40.735Z,100094.09
2022-09-11T13:05:45.581Z,100096.28
2022-09-11T13:10:47.169Z,100086.94
2022-09-11T13:15:58.011Z,100090.38
2022-09-11T13:21:24.349Z,100076.78
2022-09-11T13:26:32.803Z,100075.94
2022-09-11T13:31:35.835Z,100074.28
2022-09-11T13:36:39.909Z,100066.88
2022-09-11T13:41:44.848Z,100061.41
2022-09-11T13:46:52.268Z,100055.78
2022-09-11T13:51:54.566Z,100055.69
2022-09-11T13:56:56.222Z,100053.56
2022-09-11T14:02:02.015Z,100042.66
2022-09-11T14:07:03.832Z,100040.66
2022-09-11T14:12:05.725Z,100048.81
2022-09-11T14:17:11.008Z,100047.50
2022-09-11T14:22:24.557Z,100045.97
2022-09-11T14:27:35.074Z,100046.72
2022-09-11T14:32:39.139Z,100034.28
2022-09-11T14:37:45.866Z,100033.16
2022-09-11T14:42:48.284Z,100040.28
2022-09-11T14:47:50.321Z,100028.22
2022-09-11T14:52:52.029Z,100038.66
2022-09-11T14:57:53.635Z,100025.53
2022-09-11T15:02:55.352Z,100030.22
2022-09-11T15:08:00.273Z,100041.09
2022-09-11T15:13:03.035Z,100043.38
2022-09-11T15:18:06.788Z,100043.66
2022-09-11T15:23:08.592Z,100035.25
2022-09-11T15:28:10.255Z,100033.44
2022-09-11T15:33:12.001Z,100039.91
2022-09-11T15:38:13.859Z,100034.66
2022-09-11T15:43:15.417Z,100037.78
2022-09-11T15:48:17.563Z,100037.97
2022-09-11T15:53:19.161Z,100032.28
2022-09-11T15:58:20.770Z,100033.91
2022-09-11T16:03:22.329Z,100047.38
2022-09-11T16:08:24.597Z,100053.66
2022-09-11T16:13:26.160Z,100038.84
2022-09-11T16:18:27.773Z,100031.34
2022-09-11T16:23:30.400Z,100020.72
2022-09-11T16:28:37.092Z,100037.34
2022-09-11T16:33:44.329Z,100026.94
2022-09-11T16:38:47.923Z,100026.44
2022-09-11T16:43:52.392Z,100026.94
2022-09-11T16:48:59.791Z,100027.78
2022-09-11T16:54:04.313Z,100020.31
2022-09-11T16:59:06.562Z,100022.69
2022-09-11T17:04:08.158Z,100025.75
2022-09-11T17:09:09.739Z,100019.34
2022-09-11T17:14:11.782Z,100027.56
2022-09-11T17:19:13.333Z,100021.28
2022-09-11T17:24:17.971Z,100022.94
2022-09-11T17:29:19.782Z,100039.63
2022-09-11T17:34:21.570Z,100038.19
2022-09-11T17:39:23.279Z,100039.19
2022-09-11T17:44:24.883Z,100041.78
2022-09-11T17:49:26.899Z,100055.22
2022-09-11T17:54:28.494Z,100053.00
2022-09-11T17:59:30.493Z,100046.06
2022-09-11T18:04:32.428Z,100059.97
2022-09-11T18:09:34.008Z,100052.13
2022-09-11T18:14:40.504Z,100059.91
2022-09-11T18:19:42.435Z,100065.41
2022-09-11T18:24:44.422Z,100065.47
2022-09-11T18:29:46.097Z,100050.66
2022-09-11T18:34:48.485Z,100055.97
2022-09-11T18:39:50.199Z,100062.56
2022-09-11T18:44:51.808Z,100069.72
2022-09-11T18:49:53.351Z,100081.53
2022-09-11T18:54:54.985Z,100100.78
2022-09-11T18:59:56.504Z,100102.19
2022-09-11T19:04:58.536Z,100100.53
2022-09-11T19:10:01.621Z,100116.91
2022-09-11T19:15:03.779Z,100115.38
2022-09-11T19:20:09.663Z,100126.75
2022-09-11T19:25:11.269Z,100128.19
2022-09-11T19:30:13.781Z,100131.88
2022-09-11T19:35:15.369Z,100128.09
2022-09-11T19:40:17.152Z,100117.84
2022-09-11T19:45:18.654Z,100116.88
2022-09-11T19:50:21.961Z,100123.03
2022-09-11T19:55:23.592Z,100123.47
2022-09-11T20:00:25.348Z,100133.28
2022-09-11T20:05:27.099Z,100126.59
2022-09-11T20:10:29.748Z,100135.09
2022-09-11T20:15:31.316Z,100136.63
2022-09-11T20:20:33.171Z,100130.00
2022-09-11T20:25:34.738Z,100124.09
2022-09-11T20:30:36.990Z,100118.25
2022-09-11T20:35:38.982Z,100129.38
2022-09-11T20:40:42.715Z,100121.44
2022-09-11T20:45:44.322Z,100115.28
2022-09-11T20:50:45.949Z,100119.53
2022-09-11T20:55:48.075Z,100102.75
2022-09-11T21:00:49.646Z,100117.59
2022-09-11T21:05:51.922Z,100113.41
2022-09-11T21:10:53.495Z,100116.75
2022-09-11T21:15:55.155Z,100114.56
2022-09-11T21:20:57.171Z,100113.47
2022-09-11T21:25:58.800Z,100110.59
2022-09-11T21:31:00.447Z,100116.34
2022-09-11T21:36:02.433Z,100118.69
2022-09-11T21:41:06.645Z,100115.91
2022-09-11T21:46:09.071Z,100123.75
2022-09-11T21:51:15.840Z,100121.28
2022-09-11T21:56:24.917Z,100118.00
2022-09-11T22:01:28.209Z,100118.44
2022-09-11T22:06:31.156Z,100106.38
2022-09-11T22:11:32.713Z,100108.78
2022-09-11T22:16:34.282Z,100107.00
2022-09-11T22:21:35.882Z,100102.81
2022-09-11T22:26:37.699Z,100103.81
2022-09-11T22:31:39.809Z,100110.06
2022-09-11T22:36:41.401Z,100109.13
2022-09-11T22:41:43.167Z,100104.78
2022-09-11T22:46:48.679Z,100104.81
2022-09-11T22:51:50.501Z,100106.75
2022-09-11T22:56:52.030Z,100111.50
2022-09-11T23:01:53.618Z,100112.50
2022-09-11T23:07:13.620Z,100115.38
2022-09-11T23:12:15.212Z,100119.19
2022-09-11T23:17:16.817Z,100114.38
2022-09-11T23:22:18.291Z,100118.59
2022-09-11T23:27:20.210Z,100117.66
2022-09-11T23:32:21.781Z,100126.41
2022-09-11T23:37:23.492Z,100128.38
2022-09-11T23:42:25.218Z,100128.97
2022-09-11T23:47:26.798Z,100120.50
2022-09-11T23:52:28.882Z,100113.44
2022-09-11T23:57:30.466Z,100100.97
